Time;durP1;ratioP1;P1;durP2;ratioP2;P2;SDS_P1;SDS_P2;PMS_P1;PMS_P2;Temp;Humidity;BMP_temperature;BMP_pressure;BME280_temperature;BME280_humidity;BME280_pressure;Samples;Min_cycle;Max_cycle;Signal;HPM_P1;HPM_P2
2023/08/11 00:01:42;;;;;;;1.40;1.30;;;;;;;16.21;83.35;101928.44;5096128;28;20032;-91
2023/08/11 00:04:07;;;;;;;1.37;1.30;;;;;;;16.16;83.15;101932.94;5095951;28;20137;-91
2023/08/11 00:06:32;;;;;;;1.50;1.40;;;;;;;16.19;83.40;101932.88;5096098;28;20043;-90
2023/08/11 00:08:59;;;;;;;2.43;1.80;;;;;;;16.19;83.19;101938.13;5096579;28;20028;-90
2023/08/11 00:11:24;;;;;;;1.80;1.70;;;;;;;16.16;83.46;101932.06;5095915;28;20040;-90
2023/08/11 00:13:49;;;;;;;1.90;1.77;;;;;;;16.15;83.83;101940.84;5095546;28;20077;-90
2023/08/11 00:16:15;;;;;;;1.60;1.50;;;;;;;16.12;83.96;101933.91;5095772;28;20020;-90
2023/08/11 00:18:40;;;;;;;1.60;1.50;;;;;;;16.10;83.87;101938.28;5100075;28;20108;-90
2023/08/11 00:21:06;;;;;;;1.70;1.60;;;;;;;16.07;84.07;101933.16;5095643;28;20024;-90
2023/08/11 00:23:31;;;;;;;1.70;1.50;;;;;;;16.03;84.03;101926.25;5095327;28;20058;-91
2023/08/11 00:25:57;;;;;;;1.70;1.60;;;;;;;15.97;84.13;101929.00;5096175;28;20058;-90
2023/08/11 00:28:22;;;;;;;1.67;1.57;;;;;;;15.95;84.08;101925.53;5095922;28;20396;-90
2023/08/11 00:30:49;;;;;;;1.90;1.77;;;;;;;15.92;84.32;101923.84;5095519;28;20016;-90
2023/08/11 00:33:14;;;;;;;1.70;1.60;;;;;;;15.90;84.52;101929.09;5095437;28;20028;-91
2023/08/11 00:35:41;;;;;;;2.00;1.80;;;;;;;15.88;84.57;101928.28;5101081;22;20020;-90
2023/08/11 00:38:07;;;;;;;1.70;1.60;;;;;;;15.86;84.68;101926.59;5095534;28;20102;-90
2023/08/11 00:40:32;;;;;;;1.60;1.50;;;;;;;15.84;84.51;101933.56;5095506;28;20555;-91
2023/08/11 00:42:57;;;;;;;1.90;1.80;;;;;;;15.80;84.58;101930.16;5095790;28;20032;-91
2023/08/11 00:45:23;;;;;;;2.17;2.00;;;;;;;15.77;84.89;101924.97;5095216;28;20028;-91
2023/08/11 00:47:49;;;;;;;2.30;2.10;;;;;;;15.78;85.05;101921.47;5117806;28;20075;-90
2023/08/11 00:50:17;;;;;;;1.90;1.80;;;;;;;15.75;85.23;101925.00;5096989;28;20031;-91
2023/08/11 00:52:45;;;;;;;1.65;1.55;;;;;;;15.71;85.86;101909.41;5094923;28;20019;-91
2023/08/11 00:55:12;;;;;;;2.15;1.90;;;;;;;15.67;85.28;101906.00;5095645;28;20352;-90
2023/08/11 00:57:38;;;;;;;2.08;1.90;;;;;;;15.66;85.22;101909.50;5095350;28;20082;-91
2023/08/11 01:00:12;;;;;;;1.73;1.63;;;;;;;15.62;86.03;101894.75;5094127;28;20118;-90
2023/08/11 01:02:41;;;;;;;1.75;1.65;;;;;;;15.62;85.75;101904.34;5094731;28;20020;-91
2023/08/11 01:05:08;;;;;;;1.65;1.55;;;;;;;15.54;85.83;101887.03;5095458;28;20367;-91
2023/08/11 01:08:06;;;;;;;1.55;1.45;;;;;;;15.57;85.95;101891.38;5094998;28;20499;-91
2023/08/11 01:10:46;;;;;;;1.90;1.80;;;;;;;15.55;85.75;101895.75;5060904;28;20046;-91
2023/08/11 01:13:20;;;;;;;2.10;1.90;;;;;;;15.53;85.76;101892.31;5094606;28;20024;-91
2023/08/11 01:15:59;;;;;;;1.90;1.80;;;;;;;15.51;86.03;101894.09;5095263;28;20379;-90
2023/08/11 01:18:26;;;;;;;2.72;2.00;;;;;;;15.52;87.42;101893.19;5094580;28;20487;-91
2023/08/11 01:21:05;;;;;;;2.42;2.22;;;;;;;15.48;86.36;101888.94;5094458;28;20024;-91
2023/08/11 01:23:34;;;;;;;2.15;1.98;;;;;;;15.47;86.85;101895.06;5095226;28;20023;-91
2023/08/11 01:26:01;;;;;;;2.03;1.83;;;;;;;15.43;87.27;101881.16;5098082;28;20031;-91
2023/08/11 01:28:27;;;;;;;2.40;2.17;;;;;;;15.42;88.06;101880.28;5094158;28;20034;-91
2023/08/11 01:30:52;;;;;;;2.20;2.00;;;;;;;15.43;87.37;101878.53;5095189;28;20024;-91
2023/08/11 01:33:18;;;;;;;2.23;2.03;;;;;;;15.41;87.27;101875.09;5094312;28;20035;-91
2023/08/11 01:35:44;;;;;;;2.20;2.00;;;;;;;15.41;86.74;101880.34;5093970;28;20078;-91
2023/08/11 01:38:09;;;;;;;2.35;1.90;;;;;;;15.39;86.81;101872.50;5094691;28;20024;-91
2023/08/11 01:40:35;;;;;;;2.00;1.90;;;;;;;15.40;86.95;101883.84;5094531;28;20064;-92
2023/08/11 01:43:08;;;;;;;1.93;1.83;;;;;;;15.39;86.69;101882.97;5095109;28;20047;-91
2023/08/11 01:45:34;;;;;;;3.63;2.10;;;;;;;15.39;86.75;101896.03;5099063;28;20036;-91
2023/08/11 01:48:01;;;;;;;1.97;1.87;;;;;;;15.38;86.83;101885.63;5099467;28;20028;-91
2023/08/11 01:50:27;;;;;;;2.45;2.00;;;;;;;15.35;86.76;101880.44;5099155;28;20103;-92
2023/08/11 01:52:54;;;;;;;2.30;2.10;;;;;;;15.35;86.76;101886.53;5098961;28;20020;-92
2023/08/11 01:55:24;;;;;;;2.85;2.30;;;;;;;15.32;86.76;101883.09;5099009;28;20020;-91
2023/08/11 01:57:53;;;;;;;2.30;2.10;;;;;;;15.32;87.01;101883.97;5099851;28;20076;-92
2023/08/11 02:00:20;;;;;;;2.22;2.03;;;;;;;15.28;87.04;101871.84;5100018;28;20093;-91
2023/08/11 02:02:46;;;;;;;2.50;2.10;;;;;;;15.25;86.98;101875.38;5098606;28;20036;-91
2023/08/11 02:05:12;;;;;;;2.27;2.07;;;;;;;15.17;87.18;101869.44;5099464;28;20119;-91
2023/08/11 02:07:38;;;;;;;2.30;2.10;;;;;;;15.18;87.43;101873.78;5098572;28;20369;-91
2023/08/11 02:10:04;;;;;;;2.47;2.13;;;;;;;15.14;87.70;101870.34;5097498;28;20047;-91
2023/08/11 02:12:30;;;;;;;2.10;1.90;;;;;;;15.10;87.86;101866.06;5098310;28;20027;-91
2023/08/11 02:14:56;;;;;;;2.30;2.10;;;;;;;15.05;87.73;101867.88;5098557;28;20281;-92
2023/08/11 02:17:21;;;;;;;2.37;2.10;;;;;;;15.04;87.77;101860.09;5098172;28;20027;-91
2023/08/11 02:19:46;;;;;;;2.40;2.20;;;;;;;15.02;87.68;101861.84;5098854;28;20052;-91
2023/08/11 02:22:12;;;;;;;2.40;2.20;;;;;;;15.00;87.67;101856.66;5098278;28;20024;-91
2023/08/11 02:24:37;;;;;;;3.07;2.50;;;;;;;14.95;87.71;101853.25;5097960;28;20042;-92
2023/08/11 02:27:03;;;;;;;2.50;2.20;;;;;;;14.94;87.67;101852.41;5098037;28;20409;-91
2023/08/11 02:29:28;;;;;;;2.50;2.30;;;;;;;14.92;87.74;101851.56;5098554;28;20028;-92
2023/08/11 02:31:53;;;;;;;2.40;2.20;;;;;;;14.92;87.74;101856.78;5098062;28;20020;-91
2023/08/11 02:34:19;;;;;;;2.50;2.30;;;;;;;14.88;88.09;101855.09;5100013;28;20024;-91
2023/08/11 02:36:44;;;;;;;2.80;2.40;;;;;;;14.87;88.17;101856.00;5098972;28;20048;-91
2023/08/11 02:39:12;;;;;;;2.87;2.37;;;;;;;14.87;88.04;101858.59;5098440;28;20411;-91
2023/08/11 02:41:37;;;;;;;4.03;2.55;;;;;;;14.86;88.06;101869.94;5098353;28;20043;-91
2023/08/11 02:44:05;;;;;;;2.47;2.27;;;;;;;14.80;88.14;101857.88;5097965;28;20486;-92
2023/08/11 02:46:31;;;;;;;3.30;2.67;;;;;;;14.86;88.17;101863.88;5098437;28;20026;-92
2023/08/11 02:48:56;;;;;;;2.60;2.40;;;;;;;14.83;88.83;101862.19;5098201;28;20024;-91
2023/08/11 02:51:22;;;;;;;2.80;2.50;;;;;;;14.80;88.69;101864.84;5097311;28;20126;-91
2023/08/11 02:53:47;;;;;;;2.47;2.20;;;;;;;14.78;88.84;101872.72;5097974;28;20028;-91
2023/08/11 02:56:15;;;;;;;3.17;2.50;;;;;;;14.70;88.74;101861.50;5097678;28;20110;-91
2023/08/11 02:58:49;;;;;;;2.53;2.33;;;;;;;14.72;88.82;101862.34;5099147;28;20031;-91
2023/08/11 03:01:18;;;;;;;2.50;2.30;;;;;;;14.73;88.76;101866.69;5083931;22;20049;-89
2023/08/11 03:03:59;;;;;;;2.63;2.38;;;;;;;14.70;88.87;101864.13;5058168;28;20538;-91
2023/08/11 03:06:25;;;;;;;2.70;2.38;;;;;;;14.55;89.00;101844.31;5054788;28;20551;-91
2023/08/11 03:08:50;;;;;;;3.03;2.43;;;;;;;14.61;89.12;101864.25;5057789;28;20473;-91
2023/08/11 03:11:15;;;;;;;2.40;2.20;;;;;;;14.54;89.20;101854.78;5056997;28;20063;-91
2023/08/11 03:13:41;;;;;;;2.37;2.10;;;;;;;14.56;89.45;101863.47;5056716;28;20024;-91
2023/08/11 03:16:06;;;;;;;2.50;2.30;;;;;;;14.48;89.21;101843.53;5056905;28;20020;-91
2023/08/11 03:18:32;;;;;;;2.33;2.13;;;;;;;14.42;89.79;101840.16;5056894;28;20021;-90
2023/08/11 03:20:57;;;;;;;2.30;2.10;;;;;;;14.45;89.53;101851.44;5057027;28;20445;-91
2023/08/11 03:23:22;;;;;;;2.67;2.40;;;;;;;14.42;89.76;101843.63;5057556;28;20485;-91
2023/08/11 03:26:03;;;;;;;2.53;2.33;;;;;;;14.29;89.77;101831.66;5057308;28;20477;-90
2023/08/11 03:28:29;;;;;;;2.70;2.40;;;;;;;14.33;89.85;101844.63;5057279;28;20052;-91
2023/08/11 03:30:54;;;;;;;3.20;2.60;;;;;;;14.40;89.84;101857.63;5056871;28;20025;-91
2023/08/11 03:33:30;;;;;;;3.00;2.40;;;;;;;14.30;90.46;101842.06;5056056;28;20028;-90
2023/08/11 03:36:05;;;;;;;2.80;2.50;;;;;;;14.32;89.98;101852.50;5058683;28;20047;-91
2023/08/11 03:38:36;;;;;;;3.47;2.80;;;;;;;14.29;90.00;101844.69;5058350;28;20021;-90
2023/08/11 03:41:05;;;;;;;2.60;2.40;;;;;;;14.22;90.20;101838.72;5060170;28;20070;-90
2023/08/11 03:43:31;;;;;;;3.80;2.60;;;;;;;14.19;90.17;101842.25;5065687;28;20025;-90
2023/08/11 03:45:56;;;;;;;2.50;2.30;;;;;;;14.23;90.31;101848.28;5045389;28;20021;-90
2023/08/11 03:48:22;;;;;;;2.90;2.40;;;;;;;14.27;90.40;101859.53;5043245;28;20312;-90
2023/08/11 03:51:08;;;;;;;4.23;2.93;;;;;;;14.11;90.46;101827.56;5041407;28;20048;-91
2023/08/11 03:53:34;;;;;;;2.47;2.25;;;;;;;14.07;90.75;101816.31;5040100;28;20095;-90
2023/08/11 03:56:00;;;;;;;2.50;2.30;;;;;;;14.19;90.81;101844.84;5037170;28;20020;-91
2023/08/11 03:58:39;;;;;;;2.53;2.33;;;;;;;14.11;90.94;101831.06;5038090;28;20021;-91
2023/08/11 04:01:05;;;;;;;2.92;2.50;;;;;;;14.19;90.60;101843.97;5033871;28;20056;-90
2023/08/11 04:03:31;;;;;;;2.97;2.33;;;;;;;14.17;90.83;101846.59;5036520;28;20381;-91
2023/08/11 04:05:57;;;;;;;2.65;2.40;;;;;;;14.17;90.86;101838.78;5041239;28;20017;-90
2023/08/11 04:08:24;;;;;;;2.60;2.40;;;;;;;14.20;91.04;101845.69;5055761;28;20059;-91
2023/08/11 04:10:50;;;;;;;2.50;2.30;;;;;;;14.19;90.96;101844.84;5056400;28;20028;-90
2023/08/11 04:13:16;;;;;;;2.87;2.50;;;;;;;14.16;90.87;101844.88;5058199;28;20110;-91
2023/08/11 04:15:42;;;;;;;2.60;2.40;;;;;;;14.18;91.12;101855.31;5056024;28;20025;-91
2023/08/11 04:18:08;;;;;;;3.08;2.40;;;;;;;14.13;91.17;101844.91;5056968;28;20027;-90
2023/08/11 04:20:39;;;;;;;3.10;2.50;;;;;;;14.15;91.16;101850.97;5056588;28;20024;-91
2023/08/11 04:23:05;;;;;;;3.20;2.72;;;;;;;14.13;91.07;101846.69;5055814;28;20025;-91
2023/08/11 04:25:37;;;;;;;3.00;2.70;;;;;;;14.11;90.82;101845.81;5055544;28;20112;-91
2023/08/11 04:28:02;;;;;;;3.22;2.55;;;;;;;14.14;91.20;101849.25;5056178;28;20070;-92
2023/08/11 04:30:29;;;;;;;3.60;2.70;;;;;;;14.04;91.36;101829.38;5066197;28;20032;-90
2023/08/11 04:32:55;;;;;;;2.72;2.40;;;;;;;14.11;90.95;101846.72;5059488;28;20473;-91
2023/08/11 04:35:20;;;;;;;2.70;2.50;;;;;;;14.11;91.35;101843.22;5039951;28;20533;-91
2023/08/11 04:37:58;;;;;;;2.87;2.50;;;;;;;14.12;91.40;101844.94;5034154;28;20358;-91
2023/08/11 04:40:23;;;;;;;2.72;2.53;;;;;;;14.02;91.61;101832.03;5034180;28;20029;-91
2023/08/11 04:42:50;;;;;;;2.87;2.50;;;;;;;14.04;91.83;101829.38;5034853;28;20124;-91
2023/08/11 04:45:15;;;;;;;2.72;2.50;;;;;;;14.04;92.09;101829.38;5034968;28;20029;-90
2023/08/11 04:47:54;;;;;;;3.70;2.60;;;;;;;14.00;92.12;101822.50;5035464;28;20096;-91
2023/08/11 04:50:26;;;;;;;2.55;2.10;;;;;;;14.03;92.72;101823.31;5035232;28;20021;-91
2023/08/11 04:52:51;;;;;;;2.30;2.10;;;;;;;14.06;92.64;101822.41;5034862;28;20025;-90
2023/08/11 04:55:22;;;;;;;2.10;1.90;;;;;;;14.12;93.73;101822.34;5034723;28;20025;-91
2023/08/11 04:57:54;;;;;;;2.65;2.25;;;;;;;14.04;95.03;101803.28;5034684;28;20382;-91
2023/08/11 05:00:25;;;;;;;2.53;2.30;;;;;;;14.11;94.12;101815.38;5034242;28;20057;-91
2023/08/11 05:03:04;;;;;;;3.08;2.35;;;;;;;14.20;94.23;101820.47;5047187;28;20112;-91
2023/08/11 05:05:32;;;;;;;2.28;2.08;;;;;;;14.24;94.56;101818.66;5054253;28;20027;-91
2023/08/11 05:08:04;;;;;;;2.70;2.40;;;;;;;14.28;96.60;101817.75;5054324;28;20028;-91
2023/08/11 05:10:41;;;;;;;2.40;2.20;;;;;;;14.26;95.61;101806.47;5053751;28;20029;-90
2023/08/11 05:13:12;;;;;;;4.47;2.90;;;;;;;14.21;94.33;101795.22;5054137;28;20051;-91
2023/08/11 05:15:46;;;;;;;6.38;4.07;;;;;;;14.37;97.38;101816.72;5054907;28;20385;-90
2023/08/11 05:18:12;;;;;;;3.53;2.90;;;;;;;14.38;96.51;101812.38;5054292;28;20024;-90
2023/08/11 05:20:37;;;;;;;3.90;2.70;;;;;;;14.43;96.73;101823.59;5053261;28;20465;-91
2023/08/11 05:23:04;;;;;;;3.07;2.50;;;;;;;14.34;95.32;101799.34;5053924;28;20475;-90
2023/08/11 05:25:32;;;;;;;2.65;2.30;;;;;;;14.49;95.57;101821.75;5053824;28;20124;-91
2023/08/11 05:27:58;;;;;;;2.40;2.20;;;;;;;14.44;95.76;101800.09;5050281;28;20038;-91
2023/08/11 05:30:27;;;;;;;2.50;2.30;;;;;;;14.48;97.06;101799.13;5043766;28;20056;-91
2023/08/11 05:32:56;;;;;;;2.80;2.28;;;;;;;14.58;96.04;101809.44;5037989;28;20025;-92
2023/08/11 05:35:34;;;;;;;2.28;2.08;;;;;;;14.69;96.86;101817.13;5041231;28;20013;-92
2023/08/11 05:38:01;;;;;;;2.58;1.92;;;;;;;14.60;96.52;101794.59;5055655;28;20108;-93
2023/08/11 05:40:26;;;;;;;2.20;2.00;;;;;;;14.69;96.36;101802.31;5054755;28;20028;-93
2023/08/11 05:43:07;;;;;;;2.67;2.37;;;;;;;14.65;97.40;101783.16;5053852;28;20017;-92
2023/08/11 05:45:32;;;;;;;3.15;2.30;;;;;;;14.74;96.82;101795.25;5055417;28;20021;-93
2023/08/11 05:47:58;;;;;;;2.17;1.93;;;;;;;14.82;97.18;101798.59;5051826;28;20036;-89
2023/08/11 05:50:23;;;;;;;4.10;2.90;;;;;;;14.90;98.61;101806.28;5036347;28;20458;-86
2023/08/11 05:52:49;;;;;;;3.80;2.73;;;;;;;15.00;98.48;101812.22;5032533;28;20478;-86
2023/08/11 05:55:14;;;;;;;5.33;3.30;;;;;;;14.94;99.10;101797.53;5031617;28;20017;-86
2023/08/11 05:57:52;;;;;;;5.30;3.23;;;;;;;14.98;98.14;101796.56;5052285;28;20023;-87
2023/08/11 06:00:19;;;;;;;4.07;3.03;;;;;;;15.16;98.21;101814.53;5052091;28;20123;-86
2023/08/11 06:02:44;;;;;;;;;;;;;;;15.23;99.74;101816.16;5052217;28;20021;-86
2023/08/11 06:05:10;;;;;;;3.78;3.10;;;;;;;15.31;99.58;101810.78;5052156;28;19919;-86
2023/08/11 06:07:36;;;;;;;4.88;3.25;;;;;;;15.37;99.59;101818.50;5052223;28;20025;-86
2023/08/11 06:10:01;;;;;;;3.23;2.77;;;;;;;15.33;98.53;101804.63;5051459;28;20033;-86
2023/08/11 06:12:36;;;;;;;4.67;3.40;;;;;;;15.37;99.59;101797.56;5052492;28;20033;-87
2023/08/11 06:15:10;;;;;;;5.93;3.42;;;;;;;15.53;99.69;101809.47;5051346;28;20025;-86
2023/08/11 06:17:42;;;;;;;4.68;3.47;;;;;;;15.57;99.69;101795.41;5043884;28;20049;-86
2023/08/11 06:20:10;;;;;;;6.03;3.90;;;;;;;15.69;100.00;101806.50;5032554;28;20029;-90
2023/08/11 06:22:36;;;;;;;6.10;3.83;;;;;;;15.74;100.00;101805.50;5032690;28;20120;-89
2023/08/11 06:25:02;;;;;;;6.03;3.85;;;;;;;15.82;99.56;101794.03;5032561;28;20474;-87
2023/08/11 06:27:36;;;;;;;5.20;3.43;;;;;;;16.01;98.93;101818.06;5032919;28;20036;-91
2023/08/11 06:30:11;;;;;;;4.97;3.53;;;;;;;16.06;100.00;101803.13;5035285;28;20389;-94
2023/08/11 06:32:37;;;;;;;6.15;3.72;;;;;;;16.19;98.44;101811.53;5036655;28;20025;-89
2023/08/11 06:35:07;;;;;;;4.00;2.90;;;;;;;16.18;98.53;101794.09;5037480;28;20478;-96
2023/08/11 06:40:13;;;;;;;2.80;2.30;;;;;;;16.46;99.44;101817.88;5158535;22;20057;-93
2023/08/11 06:42:41;;;;;;;5.07;3.10;;;;;;;16.54;100.00;101811.59;5056714;28;20045;-92
2023/08/11 06:45:07;;;;;;;4.35;2.75;;;;;;;16.74;99.44;101829.41;5055671;28;20031;-91
2023/08/11 06:47:51;;;;;;;4.03;2.83;;;;;;;16.84;99.79;101825.66;5056374;28;20108;-93
2023/08/11 06:50:23;;;;;;;3.70;2.70;;;;;;;16.92;100.00;101814.97;5056108;28;20090;-93
2023/08/11 06:53:03;;;;;;;3.45;2.58;;;;;;;17.97;100.00;101824.31;5068312;28;20028;-92
2023/08/11 06:55:49;;;;;;;2.92;2.35;;;;;;;20.78;100.00;101825.59;5076591;28;20047;-92
2023/08/11 06:58:15;;;;;;;2.60;2.20;;;;;;;23.32;93.52;101826.78;5075618;28;20052;-92
2023/08/11 07:00:50;;;;;;;2.40;2.20;;;;;;;25.55;82.48;101831.66;5076114;28;20028;-89
2023/08/11 07:03:15;;;;;;;2.78;2.05;;;;;;;27.12;77.19;101833.69;5072613;22;20049;-92
2023/08/11 07:05:40;;;;;;;2.93;2.10;;;;;;;28.50;73.00;101842.41;5055634;28;20489;-90
2023/08/11 07:08:05;;;;;;;4.13;2.23;;;;;;;29.49;63.66;101844.63;5055675;28;20075;-92
2023/08/11 07:10:32;;;;;;;3.40;2.47;;;;;;;30.09;59.84;101841.59;5056473;28;20104;-92
2023/08/11 07:12:57;;;;;;;2.83;2.40;;;;;;;30.35;54.44;101842.06;5052716;28;20017;-89
2023/08/11 07:15:23;;;;;;;2.57;2.30;;;;;;;30.12;58.48;101848.50;5073162;28;20150;-91
2023/08/11 07:17:48;;;;;;;4.10;2.20;;;;;;;29.61;57.33;101850.81;5061824;28;20048;-89
2023/08/11 07:20:13;;;;;;;5.70;2.83;;;;;;;28.78;54.77;101848.34;5074320;28;20490;-89
2023/08/11 07:22:39;;;;;;;4.13;2.80;;;;;;;27.69;59.68;101843.97;5059515;28;20024;-89
2023/08/11 07:25:04;;;;;;;3.40;2.60;;;;;;;26.83;59.68;101851.69;5055036;28;20024;-90
2023/08/11 07:27:30;;;;;;;2.83;2.33;;;;;;;26.02;62.14;101840.16;5054561;28;20381;-90
2023/08/11 07:29:55;;;;;;;4.80;2.70;;;;;;;25.31;65.24;101845.50;5055469;28;20053;-88
2023/08/11 07:32:20;;;;;;;2.40;2.20;;;;;;;24.73;67.09;101837.47;5054094;28;20454;-89
2023/08/11 07:34:46;;;;;;;3.23;2.40;;;;;;;24.35;68.12;101843.19;5068903;28;20380;-88
2023/08/11 07:37:11;;;;;;;4.00;2.50;;;;;;;24.00;70.09;101846.06;5074544;28;20032;-89
2023/08/11 07:39:36;;;;;;;3.47;2.57;;;;;;;23.74;70.92;101848.38;5074102;28;20021;-90
2023/08/11 07:42:05;;;;;;;4.50;2.50;;;;;;;23.48;70.39;101847.97;5057827;28;20017;-89
2023/08/11 07:44:31;;;;;;;3.20;2.45;;;;;;;23.32;72.38;101842.66;5054487;28;20021;-89
2023/08/11 07:46:56;;;;;;;2.95;2.40;;;;;;;23.21;73.19;101843.22;5055312;28;20028;-89
2023/08/11 07:49:22;;;;;;;2.67;2.10;;;;;;;23.18;75.02;101843.38;5054532;28;20028;-89
2023/08/11 07:51:52;;;;;;;3.03;2.40;;;;;;;23.17;69.95;101851.38;5061896;28;20072;-93
2023/08/11 07:54:17;;;;;;;3.25;2.30;;;;;;;23.07;73.64;101857.16;5073148;28;20028;-86
2023/08/11 07:56:44;;;;;;;2.70;2.27;;;;;;;23.09;73.26;101857.06;5073903;28;20425;-85
2023/08/11 07:59:09;;;;;;;;;;;;;;;23.09;73.05;101855.28;5070966;28;20029;-85
2023/08/11 08:01:36;;;;;;;2.35;2.08;;;;;;;23.06;74.21;101849.31;5072953;28;19939;-85
2023/08/11 08:04:03;;;;;;;2.30;2.10;;;;;;;23.07;71.43;101846.56;5065765;28;20049;-80
2023/08/11 08:06:29;;;;;;;3.05;2.35;;;;;;;23.07;73.14;101854.50;5053803;28;20079;-79
2023/08/11 08:08:54;;;;;;;3.55;2.28;;;;;;;23.09;71.17;101857.06;5060190;28;20055;-88
2023/08/11 08:11:20;;;;;;;3.30;2.20;;;;;;;23.13;73.03;101853.34;5071742;28;20032;-88
2023/08/11 08:13:48;;;;;;;2.42;2.00;;;;;;;23.19;72.50;101850.41;5074445;28;20048;-93
2023/08/11 08:16:13;;;;;;;3.65;2.47;;;;;;;23.31;69.92;101853.31;5075030;28;20058;-96
2023/08/11 08:18:39;;;;;;;2.13;1.97;;;;;;;23.38;72.11;101854.72;5081424;28;20021;-95
2023/08/11 08:21:04;;;;;;;2.57;1.93;;;;;;;23.41;73.15;101846.63;5075746;28;20162;-96
2023/08/11 08:23:29;;;;;;;2.23;1.90;;;;;;;23.53;72.86;101842.44;5075955;28;20390;-96
2023/08/11 08:25:55;;;;;;;1.80;1.70;;;;;;;23.65;73.24;101844.41;5076387;28;20028;-96
2023/08/11 08:28:37;;;;;;;2.00;1.90;;;;;;;23.74;71.38;101840.41;5075154;28;20033;-96
2023/08/11 08:31:20;;;;;;;1.80;1.70;;;;;;;23.79;73.19;101833.03;5074988;28;20016;-96
2023/08/11 08:33:46;;;;;;;2.03;1.83;;;;;;;23.95;72.00;101840.16;5074534;28;20033;-96
2023/08/11 08:36:45;;;;;;;2.00;1.90;;;;;;;24.09;69.57;101852.66;5075723;28;20364;-96
2023/08/11 08:39:11;;;;;;;2.65;2.17;;;;;;;24.11;68.31;101854.25;5076603;28;20380;-90
2023/08/11 08:41:38;;;;;;;1.90;1.80;;;;;;;24.21;69.27;101851.94;5074419;28;20024;-92
2023/08/11 08:44:04;;;;;;;1.60;1.50;;;;;;;24.35;70.94;101853.81;5073184;28;20020;-91
2023/08/11 08:46:31;;;;;;;1.90;1.80;;;;;;;24.45;66.46;101841.72;5071574;28;20033;-93
2023/08/11 08:49:18;;;;;;;1.83;1.73;;;;;;;24.55;65.38;101851.78;5058917;28;20380;-89
2023/08/11 08:51:44;;;;;;;1.85;1.75;;;;;;;24.66;69.87;101847.56;5073067;28;20032;-90
2023/08/11 08:54:09;;;;;;;1.55;1.45;;;;;;;24.80;69.46;101853.88;5070683;28;20024;-90
2023/08/11 08:56:37;;;;;;;2.60;2.00;;;;;;;24.83;68.79;101843.06;5053633;28;20021;-90
2023/08/11 08:59:02;;;;;;;1.70;1.60;;;;;;;24.98;68.43;101843.97;5054393;28;20032;-95
2023/08/11 09:01:28;;;;;;;1.17;1.17;;;;;;;25.09;69.35;101846.81;5065261;28;20032;-91
2023/08/11 09:03:54;;;;;;;;;;;;;;;25.20;69.42;101843.47;5073900;28;20068;-91
2023/08/11 09:06:20;;;;;;;2.15;1.70;;;;;;;25.25;63.74;101848.50;5062346;28;19912;-92
2023/08/11 09:08:46;;;;;;;2.97;2.17;;;;;;;25.24;63.38;101839.69;5060893;28;20092;-91
2023/08/11 09:11:11;;;;;;;2.20;2.00;;;;;;;25.29;66.22;101840.25;5066937;28;20302;-91
2023/08/11 09:13:37;;;;;;;2.47;2.20;;;;;;;25.40;64.88;101847.59;5055257;28;20400;-90
2023/08/11 09:16:03;;;;;;;2.33;1.90;;;;;;;25.54;65.97;101843.22;5053837;28;20070;-91
2023/08/11 09:18:29;;;;;;;1.80;1.70;;;;;;;25.70;67.08;101843.94;5053943;28;20024;-91
2023/08/11 09:20:54;;;;;;;1.75;1.65;;;;;;;25.86;63.39;101850.94;5053829;28;20373;-93
2023/08/11 09:23:20;;;;;;;2.30;2.10;;;;;;;25.91;62.89;101843.50;5053454;28;20116;-92
2023/08/11 09:25:45;;;;;;;2.30;2.10;;;;;;;25.99;64.35;101840.34;5053666;28;20120;-92
2023/08/11 09:28:11;;;;;;;2.53;2.10;;;;;;;26.02;65.35;101830.38;5052931;28;20068;-87
2023/08/11 09:30:37;;;;;;;1.80;1.70;;;;;;;26.15;65.32;101843.75;5053041;28;20029;-91
2023/08/11 09:33:03;;;;;;;2.05;1.90;;;;;;;26.29;63.15;101834.84;5052202;28;20090;-91
2023/08/11 09:35:28;;;;;;;;;;;;;;;26.42;62.62;101834.03;5062348;28;20028;-89
2023/08/11 09:37:55;;;;;;;1.85;1.75;;;;;;;26.54;63.84;101837.66;5074089;28;19916;-95
2023/08/11 09:40:27;;;;;;;2.20;2.00;;;;;;;26.66;61.37;101837.72;5043805;28;20018;-96
2023/08/11 09:42:56;;;;;;;3.20;2.30;;;;;;;26.77;63.13;101828.13;5054077;28;20090;-96
2023/08/11 09:45:24;;;;;;;1.70;1.60;;;;;;;26.88;64.73;101836.25;5053647;28;20021;-89
2023/08/11 09:47:50;;;;;;;1.80;1.70;;;;;;;26.87;63.90;101839.00;5053202;28;20027;-92
2023/08/11 09:50:19;;;;;;;2.30;2.00;;;;;;;26.85;62.00;101831.13;5053383;28;20115;-96
2023/08/11 09:52:44;;;;;;;1.70;1.60;;;;;;;26.80;63.08;101826.13;5053629;28;20037;-95
2023/08/11 09:55:35;;;;;;;1.90;1.80;;;;;;;26.90;59.96;101837.00;5053696;28;20103;-93
2023/08/11 09:58:03;;;;;;;2.35;2.08;;;;;;;26.94;61.62;101840.31;5053250;28;20061;-93
2023/08/11 10:00:30;;;;;;;1.70;1.60;;;;;;;27.06;61.94;101834.13;5053481;28;20021;-93
2023/08/11 10:03:06;;;;;;;1.48;1.38;;;;;;;27.28;63.11;101836.13;5053421;28;20044;-92
2023/08/11 10:05:35;;;;;;;2.25;1.60;;;;;;;27.46;62.00;101835.81;5055970;28;20075;-90
2023/08/11 10:08:03;;;;;;;1.77;1.67;;;;;;;27.60;61.91;101834.81;5056839;28;20107;-90
2023/08/11 10:10:31;;;;;;;1.80;1.70;;;;;;;27.74;60.83;101847.13;5066232;28;20025;-90
2023/08/11 10:13:07;;;;;;;2.63;1.80;;;;;;;27.81;55.87;101845.72;5057532;28;20504;-90
2023/08/11 10:15:33;;;;;;;1.92;1.80;;;;;;;27.80;58.39;101845.84;5056774;28;20017;-90
2023/08/11 10:17:58;;;;;;;;;;;;;;;27.84;58.71;101840.16;5057630;28;20020;-90
2023/08/11 10:20:23;;;;;;;2.05;1.80;;;;;;;27.95;60.06;101836.72;5056362;28;19912;-91
2023/08/11 10:22:49;;;;;;;;;;;;;;;28.10;59.58;101834.75;5054749;28;20048;-89
2023/08/11 10:25:15;;;;;;;2.30;2.10;;;;;;;28.13;52.99;101828.31;5056810;28;19919;-93
2023/08/11 10:27:41;;;;;;;2.05;1.85;;;;;;;28.13;55.18;101834.53;5057099;28;20048;-81
2023/08/11 10:30:08;;;;;;;;;;;;;;;28.19;57.56;101828.72;5055426;28;20112;-81
2023/08/11 10:32:34;;;;;;;1.70;1.60;;;;;;;28.32;58.07;101830.47;5057231;28;19952;-94
2023/08/11 10:35:00;;;;;;;2.05;1.85;;;;;;;28.40;56.44;101828.06;5057630;28;20480;-93
2023/08/11 10:37:32;;;;;;;1.88;1.77;;;;;;;28.48;55.85;101823.00;5058236;28;20444;-93
2023/08/11 10:40:05;;;;;;;1.80;1.70;;;;;;;28.59;57.91;101822.16;5057971;28;20017;-92
2023/08/11 10:42:31;;;;;;;1.90;1.80;;;;;;;28.70;58.07;101818.69;5057910;28;20583;-93
2023/08/11 10:45:11;;;;;;;2.00;1.90;;;;;;;28.76;52.17;101817.38;5057992;28;20041;-93
2023/08/11 10:47:53;;;;;;;1.95;1.80;;;;;;;28.86;54.51;101825.53;5058319;28;20013;-92
2023/08/11 10:50:20;;;;;;;1.63;1.52;;;;;;;28.96;56.13;101823.81;5037608;28;20017;-90
2023/08/11 10:52:47;;;;;;;1.60;1.50;;;;;;;29.04;55.96;101816.06;5037622;28;20478;-93
2023/08/11 10:55:15;;;;;;;1.70;1.60;;;;;;;29.10;54.99;101823.59;5037286;28;20049;-94
2023/08/11 10:57:41;;;;;;;2.20;2.00;;;;;;;29.10;50.09;101825.44;5037617;28;20076;-94
2023/08/11 11:00:09;;;;;;;;;;;;;;;29.08;53.71;101825.53;5038638;28;20052;-94
2023/08/11 11:02:35;;;;;;;2.83;2.10;;;;;;;29.14;52.27;101824.19;5043267;28;19935;-95
2023/08/11 11:05:00;;;;;;;1.90;1.80;;;;;;;29.23;54.68;101819.94;5045620;28;20052;-94
2023/08/11 11:07:26;;;;;;;;;;;;;;;29.36;52.33;101815.34;5063955;28;20032;-95
2023/08/11 11:09:52;;;;;;;2.30;1.80;;;;;;;29.41;52.26;101821.16;5058178;28;19913;-93
2023/08/11 11:12:17;;;;;;;;;;;;;;;29.45;52.58;101819.09;5058632;28;20445;-92
2023/08/11 11:14:42;;;;;;;2.83;2.03;;;;;;;29.48;49.72;101820.69;5057537;28;19913;-95
2023/08/11 11:17:08;;;;;;;;;;;;;;;29.49;50.88;101817.88;5056887;28;20366;-91
2023/08/11 11:19:33;;;;;;;2.60;1.80;;;;;;;29.47;49.25;101817.16;5056548;28;20384;-92
2023/08/11 11:21:59;;;;;;;;;;;;;;;29.52;52.12;101823.00;5058978;28;20025;-96
2023/08/11 11:24:25;;;;;;;2.58;2.00;;;;;;;29.59;51.29;101815.31;5058469;28;19955;-95
2023/08/11 11:26:50;;;;;;;;;;;;;;;29.66;52.32;101824.53;5046861;28;20065;-94
2023/08/11 11:29:21;;;;;;;2.22;1.90;;;;;;;29.76;50.76;101813.06;5061116;28;19917;-95
2023/08/11 11:31:46;;;;;;;2.03;1.92;;;;;;;29.80;51.08;101810.00;5057225;28;20052;-94
2023/08/11 11:34:14;;;;;;;1.77;1.67;;;;;;;29.81;49.19;101816.22;5055956;28;20060;-94
2023/08/11 11:36:40;;;;;;;1.98;1.88;;;;;;;29.83;51.14;101814.28;5057321;28;20032;-93